createdAt,value
2022-09-28T00:01:40.703Z,14.21
2022-09-28T00:04:47.706Z,14.22
2022-09-28T00:07:44.521Z,14.22
2022-09-28T00:13:43.741Z,14.22
2022-09-28T00:16:35.836Z,14.25
2022-09-28T00:19:17.746Z,14.27
2022-09-28T00:22:00.593Z,14.26
2022-09-28T00:24:49.695Z,14.28
2022-09-28T00:27:41.965Z,14.29
2022-09-28T00:30:29.725Z,14.27
2022-09-28T00:33:11.665Z,14.20
2022-09-28T00:36:00.491Z,14.16
2022-09-28T00:38:41.629Z,14.18
2022-09-28T00:44:39.695Z,14.13
2022-09-28T00:47:17.707Z,14.10
2022-09-28T00:50:10.648Z,14.09
2022-09-28T00:53:07.568Z,14.07
2022-09-28T00:55:54.622Z,14.04
2022-09-28T00:58:47.652Z,14.05
2022-09-28T01:01:35.618Z,14.03
2022-09-28T01:04:16.588Z,14.01
2022-09-28T01:06:51.507Z,14.02
2022-09-28T01:09:50.648Z,14.02
2022-09-28T01:12:41.506Z,14.00
2022-09-28T01:15:31.617Z,14.00
2022-09-28T01:18:25.637Z,14.00
2022-09-28T01:21:06.628Z,14.03
2022-09-28T01:23:57.526Z,14.05
2022-09-28T01:26:55.586Z,14.06
2022-09-28T01:30:07.025Z,14.07
2022-09-28T01:33:08.760Z,14.08
2022-09-28T01:35:59.627Z,14.05
2022-09-28T01:38:58.547Z,13.99
2022-09-28T01:41:47.517Z,13.98
2022-09-28T01:44:31.449Z,13.98
2022-09-28T01:47:14.469Z,13.96
2022-09-28T01:49:58.526Z,13.95
2022-09-28T01:52:49.569Z,13.94
2022-09-28T01:55:40.457Z,13.92
2022-09-28T01:58:24.517Z,13.88
2022-09-28T02:01:11.872Z,13.88
2022-09-28T02:03:59.446Z,13.89
2022-09-28T02:06:50.591Z,13.91
2022-09-28T02:09:43.728Z,13.93
2022-09-28T02:12:41.725Z,13.95
2022-09-28T02:15:42.467Z,13.95
2022-09-28T02:18:30.618Z,13.95
2022-09-28T02:21:20.598Z,13.93
2022-09-28T02:24:21.240Z,13.95
2022-09-28T02:27:10.775Z,13.97
2022-09-28T02:29:53.418Z,13.99
2022-09-28T02:32:28.407Z,14.00
2022-09-28T02:35:07.411Z,14.02
2022-09-28T02:37:45.508Z,14.03
2022-09-28T02:40:30.805Z,14.03
2022-09-28T02:43:24.624Z,14.02
2022-09-28T02:46:14.498Z,13.99
2022-09-28T02:49:30.738Z,14.02
2022-09-28T02:52:40.372Z,14.03
2022-09-28T02:56:04.589Z,14.03
2022-09-28T02:58:49.623Z,14.03
2022-09-28T03:01:57.673Z,14.01
2022-09-28T03:04:53.429Z,13.98
2022-09-28T03:07:44.629Z,13.95
2022-09-28T03:10:47.591Z,13.97
2022-09-28T03:13:34.899Z,13.98
2022-09-28T03:16:21.552Z,13.97
2022-09-28T03:19:15.476Z,13.98
2022-09-28T03:22:06.067Z,13.96
2022-09-28T03:24:56.560Z,13.94
2022-09-28T03:27:42.493Z,13.91
2022-09-28T03:30:28.489Z,13.86
2022-09-28T03:33:16.377Z,13.83
2022-09-28T03:36:01.292Z,13.77
2022-09-28T03:38:50.530Z,13.72
2022-09-28T03:41:37.417Z,13.63
2022-09-28T03:44:34.466Z,13.53
2022-09-28T03:47:23.397Z,13.45
2022-09-28T03:50:15.372Z,13.39
2022-09-28T03:53:08.581Z,13.34
2022-09-28T03:55:47.347Z,13.29
2022-09-28T03:58:27.642Z,13.21
2022-09-28T04:01:12.945Z,13.16
2022-09-28T04:04:00.515Z,13.11
2022-09-28T04:06:45.266Z,13.04
2022-09-28T04:09:23.461Z,12.94
2022-09-28T04:12:04.376Z,12.90
2022-09-28T04:14:51.439Z,12.85
2022-09-28T04:17:30.466Z,12.83
2022-09-28T04:20:18.488Z,12.80
2022-09-28T04:23:16.595Z,12.80
2022-09-28T04:25:59.248Z,12.79
2022-09-28T04:29:09.479Z,12.74
2022-09-28T04:32:12.798Z,12.66
2022-09-28T04:35:02.453Z,12.60
2022-09-28T04:37:44.506Z,12.56
2022-09-28T04:40:18.353Z,12.53
2022-09-28T04:43:07.757Z,12.49
2022-09-28T04:45:52.415Z,12.48
2022-09-28T04:48:28.470Z,12.46
2022-09-28T04:51:20.645Z,12.46
2022-09-28T04:54:01.455Z,12.47
2022-09-28T04:56:41.640Z,12.51
2022-09-28T04:59:28.329Z,12.53
2022-09-28T05:02:04.524Z,12.52
2022-09-28T05:05:05.504Z,12.54
2022-09-28T05:08:06.527Z,12.52
2022-09-28T05:10:43.084Z,12.47
2022-09-28T05:13:38.785Z,12.44
2022-09-28T05:16:22.593Z,12.47
2022-09-28T05:19:21.540Z,12.49
2022-09-28T05:22:05.181Z,12.50
2022-09-28T05:25:00.684Z,12.51
2022-09-28T05:28:02.216Z,12.54
2022-09-28T05:31:05.241Z,12.57
2022-09-28T05:34:14.466Z,12.59
2022-09-28T05:36:57.321Z,12.62
2022-09-28T05:39:40.591Z,12.65
2022-09-28T05:42:25.469Z,12.67
2022-09-28T05:44:56.139Z,12.68
2022-09-28T05:47:28.493Z,12.70
2022-09-28T05:49:58.798Z,12.70
2022-09-28T05:52:29.508Z,12.70
2022-09-28T05:55:00.285Z,12.72
2022-09-28T05:57:32.894Z,12.73
2022-09-28T06:00:06.230Z,12.70
2022-09-28T06:02:42.934Z,12.70
2022-09-28T06:05:16.249Z,12.68
2022-09-28T06:07:46.780Z,12.66
2022-09-28T06:10:17.452Z,12.63
2022-09-28T06:12:49.056Z,12.60
2022-09-28T06:15:19.697Z,12.59
2022-09-28T06:17:50.427Z,12.60
2022-09-28T06:20:44.587Z,12.60
2022-09-28T06:23:18.033Z,12.59
2022-09-28T06:25:48.597Z,12.57
2022-09-28T06:28:20.365Z,12.51
2022-09-28T06:30:50.813Z,12.44
2022-09-28T06:33:22.268Z,12.35
2022-09-28T06:35:53.913Z,12.31
2022-09-28T06:38:24.484Z,12.26
2022-09-28T06:40:55.467Z,12.23
2022-09-28T06:43:26.228Z,12.20
2022-09-28T06:46:28.409Z,12.20
2022-09-28T06:49:22.201Z,12.18
2022-09-28T06:52:12.423Z,12.18
2022-09-28T06:55:20.266Z,12.20
2022-09-28T06:58:05.101Z,12.18
2022-09-28T07:00:38.215Z,12.15
2022-09-28T07:03:14.126Z,12.12
2022-09-28T07:06:24.610Z,12.10
2022-09-28T07:09:35.741Z,12.06
2022-09-28T07:12:16.834Z,12.05
2022-09-28T07:14:58.127Z,12.06
2022-09-28T07:17:32.679Z,12.11
2022-09-28T07:20:17.295Z,12.17
2022-09-28T07:22:54.548Z,12.22
2022-09-28T07:25:26.239Z,12.28
2022-09-28T07:28:22.970Z,12.28
2022-09-28T07:31:15.068Z,12.26
2022-09-28T07:34:00.843Z,12.25
2022-09-28T07:36:36.736Z,12.27
2022-09-28T07:39:08.008Z,12.29
2022-09-28T07:41:40.337Z,12.32
2022-09-28T07:44:14.105Z,12.32
2022-09-28T07:46:45.192Z,12.28
2022-09-28T07:49:27.378Z,12.26
2022-09-28T07:52:17.578Z,12.28
2022-09-28T07:55:09.869Z,12.32
2022-09-28T07:58:02.320Z,12.35
2022-09-28T08:00:55.797Z,12.35
2022-09-28T08:03:26.437Z,12.34
2022-09-28T08:06:02.238Z,12.30
2022-09-28T08:08:35.068Z,12.34
2022-09-28T08:11:10.712Z,12.37
2022-09-28T08:14:02.298Z,12.47
2022-09-28T08:17:00.155Z,12.55
2022-09-28T08:20:06.960Z,12.61
2022-09-28T08:22:39.056Z,12.66
2022-09-28T08:25:10.361Z,12.72
2022-09-28T08:27:41.254Z,12.80
2022-09-28T08:30:14.666Z,12.84
2022-09-28T08:33:08.521Z,12.85
2022-09-28T08:36:02.826Z,12.86
2022-09-28T08:38:59.682Z,12.89
2022-09-28T08:42:05.387Z,12.92
2022-09-28T08:45:08.387Z,13.08
2022-09-28T08:48:28.066Z,13.22
2022-09-28T08:51:42.370Z,13.27
2022-09-28T08:54:52.255Z,13.26
2022-09-28T08:57:54.731Z,13.21
2022-09-28T09:00:33.610Z,13.27
2022-09-28T09:03:15.772Z,13.34
2022-09-28T09:06:46.083Z,13.45
2022-09-28T09:10:30.520Z,13.62
2022-09-28T09:13:20.825Z,13.71
2022-09-28T09:16:04.980Z,13.82
2022-09-28T09:19:09.967Z,13.88
2022-09-28T09:22:23.675Z,13.82
2022-09-28T09:25:02.810Z,13.61
2022-09-28T09:27:44.087Z,13.45
2022-09-28T09:30:20.400Z,13.34
2022-09-28T09:33:13.104Z,13.24
2022-09-28T09:36:14.915Z,13.16
2022-09-28T09:39:46.487Z,13.11
2022-09-28T09:42:58.036Z,13.09
2022-09-28T09:46:16.323Z,13.10
2022-09-28T09:49:48.578Z,13.17
2022-09-28T09:52:37.804Z,13.36
2022-09-28T09:55:30.246Z,13.54
2022-09-28T09:58:31.241Z,13.62
2022-09-28T10:01:18.256Z,13.62
2022-09-28T10:04:17.702Z,13.59
2022-09-28T10:06:53.857Z,13.54
2022-09-28T10:09:44.465Z,13.48
2022-09-28T10:12:25.685Z,13.42
2022-09-28T10:14:56.722Z,13.39
2022-09-28T10:17:31.121Z,13.49
2022-09-28T10:20:22.585Z,13.61
2022-09-28T10:23:14.948Z,13.66
2022-09-28T10:25:48.489Z,13.74
2022-09-28T10:28:36.174Z,13.75
2022-09-28T10:31:36.267Z,13.65
2022-09-28T10:34:14.733Z,13.53
2022-09-28T10:37:01.050Z,13.45
2022-09-28T10:39:42.602Z,13.37
2022-09-28T10:42:20.041Z,13.26
2022-09-28T10:45:05.012Z,13.20
2022-09-28T10:47:40.345Z,13.19
2022-09-28T10:50:37.231Z,13.31
2022-09-28T10:53:22.090Z,13.44
2022-09-28T10:56:30.703Z,13.57
2022-09-28T10:59:33.379Z,13.76
2022-09-28T11:02:35.493Z,14.01
2022-09-28T11:05:24.243Z,14.18
2022-09-28T11:07:58.322Z,14.29
2022-09-28T11:10:34.994Z,14.36
2022-09-28T11:13:17.399Z,14.36
2022-09-28T11:15:55.850Z,14.43
2022-09-28T11:18:36.618Z,14.51
2022-09-28T11:21:18.277Z,14.57
2022-09-28T11:24:07.053Z,14.66
2022-09-28T11:26:46.060Z,14.68
2022-09-28T11:29:43.768Z,14.66
2022-09-28T11:32:32.405Z,14.63
2022-09-28T11:35:47.489Z,14.53
2022-09-28T11:38:38.171Z,14.47
2022-09-28T11:41:56.468Z,14.38
2022-09-28T11:44:41.707Z,14.32
2022-09-28T11:47:30.066Z,14.30
2022-09-28T11:50:24.417Z,14.19
2022-09-28T11:53:25.065Z,14.07
2022-09-28T11:56:09.000Z,13.99
2022-09-28T11:58:42.112Z,13.97
2022-09-28T12:01:31.532Z,14.02
2022-09-28T12:04:37.298Z,14.10
2022-09-28T12:07:16.003Z,14.12
2022-09-28T12:10:04.328Z,14.17
2022-09-28T12:12:41.602Z,14.21
2022-09-28T12:15:27.994Z,14.19
2022-09-28T12:18:04.700Z,14.16
2022-09-28T12:20:41.312Z,14.15
2022-09-28T12:23:17.860Z,14.17
2022-09-28T12:26:00.425Z,14.21
2022-09-28T12:28:46.015Z,14.21
2022-09-28T12:31:22.846Z,14.17
2022-09-28T12:33:54.157Z,14.17
2022-09-28T12:36:47.862Z,14.22
2022-09-28T12:39:35.575Z,14.25
2022-09-28T12:42:37.835Z,14.27
2022-09-28T12:45:21.054Z,14.26
2022-09-28T12:47:57.632Z,14.24
2022-09-28T12:51:00.042Z,14.23
2022-09-28T12:54:02.537Z,14.22
2022-09-28T12:56:50.406Z,14.22
2022-09-28T12:59:23.819Z,14.22
2022-09-28T13:02:23.411Z,14.20
2022-09-28T13:05:19.196Z,14.24
2022-09-28T13:08:26.777Z,14.28
2022-09-28T13:11:07.987Z,14.29
2022-09-28T13:13:48.495Z,14.30
2022-09-28T13:16:23.454Z,14.30
2022-09-28T13:19:13.681Z,14.29
2022-09-28T13:21:56.912Z,14.26
2022-09-28T13:24:33.647Z,14.24
2022-09-28T13:27:12.057Z,14.22
2022-09-28T13:29:43.807Z,14.22
2022-09-28T13:32:15.609Z,14.23
2022-09-28T13:34:51.115Z,14.22
2022-09-28T13:37:26.046Z,14.19
2022-09-28T13:40:09.012Z,14.17
2022-09-28T13:42:51.061Z,14.16
2022-09-28T13:45:24.647Z,14.16
2022-09-28T13:48:18.386Z,14.15
2022-09-28T13:50:54.835Z,14.13
2022-09-28T13:53:53.495Z,14.12
2022-09-28T13:56:38.791Z,14.11
2022-09-28T13:59:28.805Z,14.11
2022-09-28T14:02:24.887Z,14.13
2022-09-28T14:05:02.586Z,14.18
2022-09-28T14:07:36.127Z,14.20
2022-09-28T14:10:39.714Z,14.20
2022-09-28T14:13:14.144Z,14.19
2022-09-28T14:15:47.115Z,14.18
2022-09-28T14:18:27.601Z,14.16
2022-09-28T14:21:22.466Z,14.18
2022-09-28T14:24:09.165Z,14.19
2022-09-28T14:26:58.347Z,14.19
2022-09-28T14:29:34.238Z,14.16
2022-09-28T14:32:24.429Z,14.13
2022-09-28T14:35:04.968Z,14.11
2022-09-28T14:38:00.776Z,14.11
2022-09-28T14:41:13.419Z,14.11
2022-09-28T14:43:46.238Z,14.10
2022-09-28T14:46:19.542Z,14.13
2022-09-28T14:48:53.096Z,14.16
2022-09-28T14:51:30.534Z,14.19
2022-09-28T14:54:11.790Z,14.22
2022-09-28T14:56:47.606Z,14.26
2022-09-28T14:59:25.407Z,14.27
2022-09-28T15:02:24.884Z,14.27
2022-09-28T15:04:57.093Z,14.27
2022-09-28T15:07:44.049Z,14.26
2022-09-28T15:10:27.647Z,14.24
2022-09-28T15:12:58.810Z,14.23
2022-09-28T15:15:39.055Z,14.18
2022-09-28T15:18:28.364Z,14.15
2022-09-28T15:20:59.933Z,14.14
2022-09-28T15:23:40.770Z,14.12
2022-09-28T15:26:37.047Z,14.11
2022-09-28T15:29:19.747Z,14.11
2022-09-28T15:31:54.295Z,14.11
2022-09-28T15:34:46.820Z,14.10
2022-09-28T15:37:20.535Z,14.08
2022-09-28T15:39:55.767Z,14.07
2022-09-28T15:42:26.607Z,14.07
2022-09-28T15:45:15.713Z,14.05
2022-09-28T15:47:46.246Z,14.02
2022-09-28T15:50:28.414Z,13.99
2022-09-28T15:53:07.553Z,13.99
2022-09-28T15:55:47.228Z,13.98
2022-09-28T15:58:23.508Z,13.97
2022-09-28T16:01:22.580Z,13.98
2022-09-28T16:03:53.085Z,13.98
2022-09-28T16:06:23.867Z,13.98
2022-09-28T16:08:54.203Z,13.96
2022-09-28T16:11:33.754Z,13.93
2022-09-28T16:14:18.878Z,13.90
2022-09-28T16:16:53.594Z,13.85
2022-09-28T16:19:34.219Z,13.79
2022-09-28T16:22:09.365Z,13.75
2022-09-28T16:24:41.649Z,13.75
2022-09-28T16:27:34.050Z,13.73
2022-09-28T16:30:17.738Z,13.72
2022-09-28T16:32:50.587Z,13.72
2022-09-28T16:35:29.685Z,13.71
2022-09-28T16:38:20.788Z,13.71
2022-09-28T16:40:54.168Z,13.69
2022-09-28T16:43:29.009Z,13.69
2022-09-28T16:46:09.685Z,13.69
2022-09-28T16:48:49.056Z,13.67
2022-09-28T16:51:25.046Z,13.67
2022-09-28T16:54:12.678Z,13.67
2022-09-28T16:56:42.949Z,13.69
2022-09-28T16:59:14.019Z,13.69
2022-09-28T17:01:44.473Z,13.69
2022-09-28T17:04:15.093Z,13.67
2022-09-28T17:06:45.507Z,13.64
2022-09-28T17:09:15.998Z,13.62
2022-09-28T17:11:47.428Z,13.57
2022-09-28T17:14:23.850Z,13.51
2022-09-28T17:17:08.131Z,13.48
2022-09-28T17:19:40.175Z,13.44
2022-09-28T17:22:11.808Z,13.40
2022-09-28T17:24:42.205Z,13.40
2022-09-28T17:27:18.213Z,13.40
2022-09-28T17:29:49.048Z,13.36
2022-09-28T17:32:21.151Z,13.34
2022-09-28T17:35:00.706Z,13.34
2022-09-28T17:37:37.175Z,13.31
2022-09-28T17:40:16.212Z,13.28
2022-09-28T17:42:47.389Z,13.26
2022-09-28T17:45:18.814Z,13.23
2022-09-28T17:47:51.087Z,13.18
2022-09-28T17:50:28.430Z,13.14
2022-09-28T17:53:00.225Z,13.12
2022-09-28T17:55:33.034Z,13.13
2022-09-28T17:58:10.359Z,13.15
2022-09-28T18:00:41.321Z,13.18
2022-09-28T18:03:17.716Z,13.21
2022-09-28T18:06:04.106Z,13.25
2022-09-28T18:08:39.185Z,13.28
2022-09-28T18:11:09.611Z,13.29
2022-09-28T18:13:41.147Z,13.30
2022-09-28T18:16:11.822Z,13.28
2022-09-28T18:18:42.674Z,13.26
2022-09-28T18:21:13.205Z,13.24
2022-09-28T18:23:43.487Z,13.22
2022-09-28T18:26:19.519Z,13.19
2022-09-28T18:28:52.079Z,13.17
2022-09-28T18:31:22.724Z,13.16
2022-09-28T18:33:58.679Z,13.15
2022-09-28T18:36:35.965Z,13.14
2022-09-28T18:39:06.859Z,13.14
2022-09-28T18:46:12.016Z,13.07
2022-09-28T18:48:42.833Z,13.03
2022-09-28T18:51:14.886Z,13.01
2022-09-28T18:53:46.156Z,13.00
2022-09-28T18:56:20.542Z,12.97
2022-09-28T18:58:52.148Z,12.92
2022-09-28T19:01:32.064Z,12.91
2022-09-28T19:04:08.485Z,12.91
2022-09-28T19:06:44.902Z,12.90
2022-09-28T19:09:15.466Z,12.90
2022-09-28T19:11:45.967Z,12.88
2022-09-28T19:19:19.580Z,12.83
2022-09-28T19:21:49.939Z,12.81
2022-09-28T19:24:21.512Z,12.83
2022-09-28T19:26:53.867Z,12.84
2022-09-28T19:29:28.266Z,12.86
2022-09-28T19:31:58.905Z,12.87
2022-09-28T19:34:30.535Z,12.87
2022-09-28T19:37:04.135Z,12.87
2022-09-28T19:40:38.636Z,12.86
2022-09-28T19:43:09.265Z,12.84
2022-09-28T19:45:40.185Z,12.84
2022-09-28T19:48:10.907Z,12.82
2022-09-28T19:50:42.095Z,12.82
2022-09-28T19:53:12.403Z,12.83
2022-09-28T19:55:43.031Z,12.83
2022-09-28T19:58:13.574Z,12.83
2022-09-28T20:00:44.478Z,12.82
2022-09-28T20:03:16.024Z,12.80
2022-09-28T20:05:48.365Z,12.80
2022-09-28T20:08:19.338Z,12.81
2022-09-28T20:10:57.131Z,12.85
2022-09-28T20:14:01.357Z,12.86
2022-09-28T20:16:31.878Z,12.88
2022-09-28T20:19:04.236Z,12.89
2022-09-28T20:21:35.474Z,12.90
2022-09-28T20:28:37.793Z,12.89
2022-09-28T20:31:13.097Z,12.84
2022-09-28T20:33:44.129Z,12.82
2022-09-28T20:36:22.168Z,12.81
2022-09-28T20:38:58.737Z,12.82
2022-09-28T20:41:29.728Z,12.83
2022-09-28T20:44:04.888Z,12.82
2022-09-28T20:46:38.370Z,12.82
2022-09-28T20:49:08.911Z,12.85
2022-09-28T20:51:39.297Z,12.86
2022-09-28T20:54:41.490Z,12.86
2022-09-28T20:57:18.857Z,12.83
2022-09-28T20:59:54.515Z,12.81
2022-09-28T21:02:26.992Z,12.84
2022-09-28T21:04:57.365Z,12.85
2022-09-28T21:07:27.802Z,12.86
2022-09-28T21:09:58.400Z,12.87
2022-09-28T21:12:34.539Z,12.89
2022-09-28T21:15:06.157Z,12.89
2022-09-28T21:17:36.494Z,12.89
2022-09-28T21:20:07.440Z,12.89
2022-09-28T21:22:38.161Z,12.88
2022-09-28T21:25:08.643Z,12.88
2022-09-28T21:27:39.197Z,12.90
2022-09-28T21:30:10.610Z,12.92
2022-09-28T21:32:40.776Z,12.95
2022-09-28T21:35:11.171Z,12.97
2022-09-28T21:37:41.773Z,12.99
2022-09-28T21:40:13.598Z,13.00
2022-09-28T21:42:43.847Z,13.00
2022-09-28T21:45:14.172Z,12.98
2022-09-28T21:47:47.980Z,12.93
2022-09-28T21:50:18.362Z,12.89
2022-09-28T21:52:48.570Z,12.89
2022-09-28T21:55:19.938Z,12.91
